Falcon Village, Texas
Current Conditions -  °F | °C
As of 7:35 AM on Wednesday 22 Oct 2014 (Local Time) from KAPY Reporting Station
Overcast Overcast  
Wind Chill: 68°   Ceiling: 8000
Heat Index: 68°   Visibility: 7mi
Dew Point: 68°   Wind: 3mph
Humidity: 99%   Direction: 50°NE
Pressure: 30"   Gusts: NA
Location:  26.5643°N, 99.1225°W
Report Text: KAPY 221235Z AUTO 05003KT 7SM OVC080 20/20 A3000 RMK AO2 T02020200
Loading
Personal Weather Stations






























Interactive Weather Map
Tropical Storm Tracking
New forecast layout! Learn more

10-Day Weather Forecast

Advertisements
Track Severe Weather on mobile